フォルタレザ の空港の天気 - METARとTAF

フォルタレザ/ピント・マーティンズ国際空港 ( SBFZ / FOR ) - ブラジル セアラー州フォルタレザ
飛行場実況気象(Metar)
観測時間09/30 02:00 BRT (09/30 05:00 UTC)
風向・風速東 6m/s
視程10km以上
天気現象
全天の4割程度の雲 雲底高度 520m
気温26℃
湿度74%
気圧1012hPa
METARSBFZ 300500Z 09012KT 9999 SCT017 26/21 Q1012
過去の天気等 Google飛行場航空写真 Wunderground天気予報

過去48時間のMETAR

飛行場予報(TAF)
発表時間: 9/29 23:30 BRT (9/30 02:30 UTC)
予報対象時間: 30日3時 BRT ~ 1日3時 BRT
風向・風速東南東 5m/s
視程10km以上
全天の4割程度の雲 雲底高度 610m
30日10時 BRT ~ 30日12時 BRT に徐々に
風向・風速東 9m/s
30日16時 BRT ~ 30日18時 BRT に徐々に
風向・風速東南東 5m/s
30日21時 BRT ~ 30日23時 BRT に徐々に
風向・風速東 5m/s
TAF SBFZ 300230Z 3006/0106 11010KT 9999 SCT020 TN25/3009Z TX31/3015Z
BECMG 3013/3015 08017KT
BECMG 3019/3021 11010KT
BECMG 0100/0102 09010KT RMK PGW